sensor_id;sensor_type;location;lat;lon;timestamp;temperature;humidity
25154;DHT22;47555;51.038;6.280;2023-02-11T00:01:24;6.40;94.80
25154;DHT22;47555;51.038;6.280;2023-02-11T00:03:50;6.40;94.90
25154;DHT22;47555;51.038;6.280;2023-02-11T00:06:16;6.30;95.20
25154;DHT22;47555;51.038;6.280;2023-02-11T00:08:42;6.30;96.00
25154;DHT22;47555;51.038;6.280;2023-02-11T00:11:14;6.20;96.40
25154;DHT22;47555;51.038;6.280;2023-02-11T00:13:41;6.20;97.00
25154;DHT22;47555;51.038;6.280;2023-02-11T00:16:15;6.10;97.00
25154;DHT22;47555;51.038;6.280;2023-02-11T00:18:41;6.10;97.90
25154;DHT22;47555;51.038;6.280;2023-02-11T00:21:14;6.10;97.90
25154;DHT22;47555;51.038;6.280;2023-02-11T00:23:42;6.00;97.90
25154;DHT22;47555;51.038;6.280;2023-02-11T00:26:25;5.90;98.20
25154;DHT22;47555;51.038;6.280;2023-02-11T00:28:51;5.90;98.20
25154;DHT22;47555;51.038;6.280;2023-02-11T00:31:19;5.80;97.90
25154;DHT22;47555;51.038;6.280;2023-02-11T00:33:45;5.80;98.20
25154;DHT22;47555;51.038;6.280;2023-02-11T00:36:14;5.70;98.60
25154;DHT22;47555;51.038;6.280;2023-02-11T00:38:45;5.60;99.10
25154;DHT22;47555;51.038;6.280;2023-02-11T00:41:11;5.50;99.60
25154;DHT22;47555;51.038;6.280;2023-02-11T00:43:37;5.50;99.80
25154;DHT22;47555;51.038;6.280;2023-02-11T00:46:03;5.40;99.90
25154;DHT22;47555;51.038;6.280;2023-02-11T00:48:29;5.40;99.90
25154;DHT22;47555;51.038;6.280;2023-02-11T00:50:55;5.40;99.90
25154;DHT22;47555;51.038;6.280;2023-02-11T00:53:21;5.40;99.90
25154;DHT22;47555;51.038;6.280;2023-02-11T00:55:46;5.40;99.90
25154;DHT22;47555;51.038;6.280;2023-02-11T00:58:12;5.30;99.90
25154;DHT22;47555;51.038;6.280;2023-02-11T01:00:37;5.30;99.90
25154;DHT22;47555;51.038;6.280;2023-02-11T01:03:03;5.40;99.90
25154;DHT22;47555;51.038;6.280;2023-02-11T01:05:28;5.30;99.90
25154;DHT22;47555;51.038;6.280;2023-02-11T01:07:57;5.40;99.90
25154;DHT22;47555;51.038;6.280;2023-02-11T01:10:22;5.50;99.90
25154;DHT22;47555;51.038;6.280;2023-02-11T01:12:48;5.40;99.90
25154;DHT22;47555;51.038;6.280;2023-02-11T01:15:15;5.50;99.90
25154;DHT22;47555;51.038;6.280;2023-02-11T01:17:41;5.40;99.90
25154;DHT22;47555;51.038;6.280;2023-02-11T01:20:11;5.50;99.90
25154;DHT22;47555;51.038;6.280;2023-02-11T01:22:38;5.50;99.90
25154;DHT22;47555;51.038;6.280;2023-02-11T01:25:05;5.50;99.90
25154;DHT22;47555;51.038;6.280;2023-02-11T01:27:31;5.60;99.90
25154;DHT22;47555;51.038;6.280;2023-02-11T01:29:57;5.60;99.90
25154;DHT22;47555;51.038;6.280;2023-02-11T01:32:22;5.60;99.90
25154;DHT22;47555;51.038;6.280;2023-02-11T01:34:48;5.70;99.90
25154;DHT22;47555;51.038;6.280;2023-02-11T01:37:13;5.70;99.90
25154;DHT22;47555;51.038;6.280;2023-02-11T01:39:39;5.70;99.90
25154;DHT22;47555;51.038;6.280;2023-02-11T01:42:04;5.70;99.90
25154;DHT22;47555;51.038;6.280;2023-02-11T01:44:33;5.70;99.90
25154;DHT22;47555;51.038;6.280;2023-02-11T01:46:59;5.70;99.90
25154;DHT22;47555;51.038;6.280;2023-02-11T01:49:33;5.70;99.90
25154;DHT22;47555;51.038;6.280;2023-02-11T01:52:09;5.70;99.90
25154;DHT22;47555;51.038;6.280;2023-02-11T01:54:40;5.80;99.90
25154;DHT22;47555;51.038;6.280;2023-02-11T01:57:27;5.70;99.90
25154;DHT22;47555;51.038;6.280;2023-02-11T01:59:58;5.80;99.90
25154;DHT22;47555;51.038;6.280;2023-02-11T02:02:39;5.70;99.90
25154;DHT22;47555;51.038;6.280;2023-02-11T02:05:16;5.70;99.90
25154;DHT22;47555;51.038;6.280;2023-02-11T02:10:33;5.70;99.90
25154;DHT22;47555;51.038;6.280;2023-02-11T02:12:59;5.70;99.90
25154;DHT22;47555;51.038;6.280;2023-02-11T02:15:28;5.70;99.90
25154;DHT22;47555;51.038;6.280;2023-02-11T02:23:29;5.60;99.90
25154;DHT22;47555;51.038;6.280;2023-02-11T02:26:08;5.50;99.90
25154;DHT22;47555;51.038;6.280;2023-02-11T02:34:43;5.50;99.90
25154;DHT22;47555;51.038;6.280;2023-02-11T02:37:19;5.50;99.90
25154;DHT22;47555;51.038;6.280;2023-02-11T02:39:47;5.50;99.90
25154;DHT22;47555;51.038;6.280;2023-02-11T02:42:15;5.40;99.90
25154;DHT22;47555;51.038;6.280;2023-02-11T02:44:48;5.40;99.90
25154;DHT22;47555;51.038;6.280;2023-02-11T02:47:13;5.40;99.90
25154;DHT22;47555;51.038;6.280;2023-02-11T02:49:39;5.40;99.90
25154;DHT22;47555;51.038;6.280;2023-02-11T02:55:06;5.40;99.90
25154;DHT22;47555;51.038;6.280;2023-02-11T02:58:03;5.30;99.90
25154;DHT22;47555;51.038;6.280;2023-02-11T03:00:58;5.30;99.90
25154;DHT22;47555;51.038;6.280;2023-02-11T03:08:44;5.40;99.90
25154;DHT22;47555;51.038;6.280;2023-02-11T03:11:11;5.40;99.90
25154;DHT22;47555;51.038;6.280;2023-02-11T03:13:39;5.50;99.90
25154;DHT22;47555;51.038;6.280;2023-02-11T03:16:14;5.50;99.90
25154;DHT22;47555;51.038;6.280;2023-02-11T03:18:45;5.50;99.90
25154;DHT22;47555;51.038;6.280;2023-02-11T03:21:13;5.60;99.90
25154;DHT22;47555;51.038;6.280;2023-02-11T03:23:46;5.60;99.90
25154;DHT22;47555;51.038;6.280;2023-02-11T03:26:49;5.60;99.90
25154;DHT22;47555;51.038;6.280;2023-02-11T03:32:18;5.60;99.90
25154;DHT22;47555;51.038;6.280;2023-02-11T03:35:15;5.60;99.90
25154;DHT22;47555;51.038;6.280;2023-02-11T03:37:59;5.60;99.90
25154;DHT22;47555;51.038;6.280;2023-02-11T03:40:28;5.60;99.90
25154;DHT22;47555;51.038;6.280;2023-02-11T03:43:02;5.60;99.90
25154;DHT22;47555;51.038;6.280;2023-02-11T03:45:29;5.80;99.90
25154;DHT22;47555;51.038;6.280;2023-02-11T03:48:00;5.70;99.90
25154;DHT22;47555;51.038;6.280;2023-02-11T03:50:29;5.70;99.90
25154;DHT22;47555;51.038;6.280;2023-02-11T03:52:57;5.70;99.90
25154;DHT22;47555;51.038;6.280;2023-02-11T03:55:25;5.70;99.90
25154;DHT22;47555;51.038;6.280;2023-02-11T03:57:51;5.70;99.90
25154;DHT22;47555;51.038;6.280;2023-02-11T04:00:17;5.70;99.90
25154;DHT22;47555;51.038;6.280;2023-02-11T04:02:43;5.70;99.90
25154;DHT22;47555;51.038;6.280;2023-02-11T04:05:11;5.70;99.90
25154;DHT22;47555;51.038;6.280;2023-02-11T04:07:37;5.80;99.90
25154;DHT22;47555;51.038;6.280;2023-02-11T04:10:03;5.80;99.90
25154;DHT22;47555;51.038;6.280;2023-02-11T04:12:29;5.80;99.90
25154;DHT22;47555;51.038;6.280;2023-02-11T04:14:54;5.80;99.90
25154;DHT22;47555;51.038;6.280;2023-02-11T04:17:20;5.80;99.90
25154;DHT22;47555;51.038;6.280;2023-02-11T04:19:45;5.80;99.90
25154;DHT22;47555;51.038;6.280;2023-02-11T04:22:11;5.80;99.90
25154;DHT22;47555;51.038;6.280;2023-02-11T04:24:37;5.80;99.90
25154;DHT22;47555;51.038;6.280;2023-02-11T04:27:02;5.80;99.90
25154;DHT22;47555;51.038;6.280;2023-02-11T04:29:28;5.80;99.90
25154;DHT22;47555;51.038;6.280;2023-02-11T04:31:54;5.80;99.90
25154;DHT22;47555;51.038;6.280;2023-02-11T04:34:20;5.80;99.90
25154;DHT22;47555;51.038;6.280;2023-02-11T04:36:46;5.80;99.90
25154;DHT22;47555;51.038;6.280;2023-02-11T04:39:12;5.80;99.90
25154;DHT22;47555;51.038;6.280;2023-02-11T04:41:37;5.80;99.90
25154;DHT22;47555;51.038;6.280;2023-02-11T04:44:03;5.80;99.90
25154;DHT22;47555;51.038;6.280;2023-02-11T04:46:29;5.80;99.90
25154;DHT22;47555;51.038;6.280;2023-02-11T04:48:55;5.70;99.90
25154;DHT22;47555;51.038;6.280;2023-02-11T04:51:21;5.70;99.90
25154;DHT22;47555;51.038;6.280;2023-02-11T04:53:46;5.70;99.90
25154;DHT22;47555;51.038;6.280;2023-02-11T04:56:12;5.70;99.90
25154;DHT22;47555;51.038;6.280;2023-02-11T04:58:37;5.70;99.90
25154;DHT22;47555;51.038;6.280;2023-02-11T05:01:07;5.70;99.90
25154;DHT22;47555;51.038;6.280;2023-02-11T05:03:33;5.70;99.90
25154;DHT22;47555;51.038;6.280;2023-02-11T05:05:59;5.70;99.90
25154;DHT22;47555;51.038;6.280;2023-02-11T05:08:25;5.70;99.90
25154;DHT22;47555;51.038;6.280;2023-02-11T05:10:50;5.70;99.90
25154;DHT22;47555;51.038;6.280;2023-02-11T05:13:16;5.60;99.90
25154;DHT22;47555;51.038;6.280;2023-02-11T05:15:41;5.60;99.90
25154;DHT22;47555;51.038;6.280;2023-02-11T05:18:07;5.60;99.90
25154;DHT22;47555;51.038;6.280;2023-02-11T05:20:33;5.60;99.90
25154;DHT22;47555;51.038;6.280;2023-02-11T05:22:58;5.60;99.90
25154;DHT22;47555;51.038;6.280;2023-02-11T05:25:24;5.60;99.90
25154;DHT22;47555;51.038;6.280;2023-02-11T05:27:49;5.60;99.90
25154;DHT22;47555;51.038;6.280;2023-02-11T05:30:15;5.50;99.90
25154;DHT22;47555;51.038;6.280;2023-02-11T05:32:40;5.60;99.90
25154;DHT22;47555;51.038;6.280;2023-02-11T05:35:06;5.50;99.90
25154;DHT22;47555;51.038;6.280;2023-02-11T05:37:33;5.50;99.90
25154;DHT22;47555;51.038;6.280;2023-02-11T05:39:58;5.50;99.90
25154;DHT22;47555;51.038;6.280;2023-02-11T05:42:24;5.50;99.90
25154;DHT22;47555;51.038;6.280;2023-02-11T05:44:49;5.50;99.90
25154;DHT22;47555;51.038;6.280;2023-02-11T05:47:15;5.60;99.90
25154;DHT22;47555;51.038;6.280;2023-02-11T05:49:40;5.60;99.90
25154;DHT22;47555;51.038;6.280;2023-02-11T05:52:06;5.60;99.90
25154;DHT22;47555;51.038;6.280;2023-02-11T05:54:31;5.60;99.90
25154;DHT22;47555;51.038;6.280;2023-02-11T05:56:57;5.60;99.90
25154;DHT22;47555;51.038;6.280;2023-02-11T05:59:22;5.60;99.90
25154;DHT22;47555;51.038;6.280;2023-02-11T06:01:48;5.60;99.90
25154;DHT22;47555;51.038;6.280;2023-02-11T06:04:13;5.60;99.90
25154;DHT22;47555;51.038;6.280;2023-02-11T06:06:39;5.60;99.90
25154;DHT22;47555;51.038;6.280;2023-02-11T06:09:04;5.60;99.90
25154;DHT22;47555;51.038;6.280;2023-02-11T06:11:30;5.60;99.90
25154;DHT22;47555;51.038;6.280;2023-02-11T06:13:55;5.70;99.90
25154;DHT22;47555;51.038;6.280;2023-02-11T06:16:21;5.70;99.90
25154;DHT22;47555;51.038;6.280;2023-02-11T06:18:46;5.70;99.90
25154;DHT22;47555;51.038;6.280;2023-02-11T06:21:12;5.70;99.90
25154;DHT22;47555;51.038;6.280;2023-02-11T06:23:38;5.70;99.90
25154;DHT22;47555;51.038;6.280;2023-02-11T06:26:08;5.70;99.90
25154;DHT22;47555;51.038;6.280;2023-02-11T06:28:34;5.70;99.90
25154;DHT22;47555;51.038;6.280;2023-02-11T06:31:06;5.70;99.90
25154;DHT22;47555;51.038;6.280;2023-02-11T06:33:33;5.70;99.90
25154;DHT22;47555;51.038;6.280;2023-02-11T06:35:58;5.70;99.90
25154;DHT22;47555;51.038;6.280;2023-02-11T06:38:24;5.70;99.90
25154;DHT22;47555;51.038;6.280;2023-02-11T06:40:50;5.70;99.90
25154;DHT22;47555;51.038;6.280;2023-02-11T06:43:15;5.70;99.90
25154;DHT22;47555;51.038;6.280;2023-02-11T06:45:41;5.70;99.90
25154;DHT22;47555;51.038;6.280;2023-02-11T06:48:07;5.70;99.90
25154;DHT22;47555;51.038;6.280;2023-02-11T06:50:32;5.80;99.90
25154;DHT22;47555;51.038;6.280;2023-02-11T06:52:58;5.80;99.90
25154;DHT22;47555;51.038;6.280;2023-02-11T06:55:24;5.80;99.90
25154;DHT22;47555;51.038;6.280;2023-02-11T06:57:50;5.80;99.90
25154;DHT22;47555;51.038;6.280;2023-02-11T07:00:16;5.80;99.90
25154;DHT22;47555;51.038;6.280;2023-02-11T07:02:41;5.80;99.90
25154;DHT22;47555;51.038;6.280;2023-02-11T07:05:07;5.70;99.90
25154;DHT22;47555;51.038;6.280;2023-02-11T07:07:33;5.80;99.90
25154;DHT22;47555;51.038;6.280;2023-02-11T07:09:58;5.80;99.90
25154;DHT22;47555;51.038;6.280;2023-02-11T07:12:24;5.80;99.90
25154;DHT22;47555;51.038;6.280;2023-02-11T07:14:49;5.80;99.90
25154;DHT22;47555;51.038;6.280;2023-02-11T07:17:15;5.80;99.90
25154;DHT22;47555;51.038;6.280;2023-02-11T07:19:41;5.80;99.90
25154;DHT22;47555;51.038;6.280;2023-02-11T07:22:06;5.80;99.90
25154;DHT22;47555;51.038;6.280;2023-02-11T07:24:32;5.80;99.90
25154;DHT22;47555;51.038;6.280;2023-02-11T07:26:57;5.80;99.90
25154;DHT22;47555;51.038;6.280;2023-02-11T07:29:23;5.80;99.90
25154;DHT22;47555;51.038;6.280;2023-02-11T07:31:48;5.80;99.90
25154;DHT22;47555;51.038;6.280;2023-02-11T07:34:14;5.80;99.90
25154;DHT22;47555;51.038;6.280;2023-02-11T07:36:40;5.90;99.90
25154;DHT22;47555;51.038;6.280;2023-02-11T07:39:07;5.80;99.90
25154;DHT22;47555;51.038;6.280;2023-02-11T07:41:33;5.90;99.90
25154;DHT22;47555;51.038;6.280;2023-02-11T07:44:01;5.90;99.90
25154;DHT22;47555;51.038;6.280;2023-02-11T07:46:27;5.90;99.90
25154;DHT22;47555;51.038;6.280;2023-02-11T07:48:53;5.90;99.90
25154;DHT22;47555;51.038;6.280;2023-02-11T07:51:25;5.90;99.90
25154;DHT22;47555;51.038;6.280;2023-02-11T07:53:52;5.90;99.90
25154;DHT22;47555;51.038;6.280;2023-02-11T07:56:18;5.90;99.90
25154;DHT22;47555;51.038;6.280;2023-02-11T07:58:44;5.90;99.90
25154;DHT22;47555;51.038;6.280;2023-02-11T08:01:24;5.90;99.90
25154;DHT22;47555;51.038;6.280;2023-02-11T08:03:54;5.90;99.90
25154;DHT22;47555;51.038;6.280;2023-02-11T08:06:21;5.90;99.90
25154;DHT22;47555;51.038;6.280;2023-02-11T08:08:48;5.90;99.90
25154;DHT22;47555;51.038;6.280;2023-02-11T08:11:19;5.90;99.90
25154;DHT22;47555;51.038;6.280;2023-02-11T08:13:45;5.90;99.90
25154;DHT22;47555;51.038;6.280;2023-02-11T08:16:19;5.90;99.90
25154;DHT22;47555;51.038;6.280;2023-02-11T08:18:45;5.90;99.90
25154;DHT22;47555;51.038;6.280;2023-02-11T08:21:11;6.00;99.90
25154;DHT22;47555;51.038;6.280;2023-02-11T08:23:38;5.90;99.90
25154;DHT22;47555;51.038;6.280;2023-02-11T08:26:06;6.00;99.90
25154;DHT22;47555;51.038;6.280;2023-02-11T08:28:35;6.00;99.90
25154;DHT22;47555;51.038;6.280;2023-02-11T08:31:05;6.00;99.90
25154;DHT22;47555;51.038;6.280;2023-02-11T08:33:31;6.00;99.90
25154;DHT22;47555;51.038;6.280;2023-02-11T08:35:57;6.00;99.90
25154;DHT22;47555;51.038;6.280;2023-02-11T08:38:22;6.10;99.90
25154;DHT22;47555;51.038;6.280;2023-02-11T08:40:48;6.00;99.90
25154;DHT22;47555;51.038;6.280;2023-02-11T08:43:14;6.10;99.90
25154;DHT22;47555;51.038;6.280;2023-02-11T08:45:39;6.10;99.90
25154;DHT22;47555;51.038;6.280;2023-02-11T08:48:05;6.10;99.90
25154;DHT22;47555;51.038;6.280;2023-02-11T08:50:30;6.10;99.90
25154;DHT22;47555;51.038;6.280;2023-02-11T08:52:56;6.10;99.90
25154;DHT22;47555;51.038;6.280;2023-02-11T08:55:22;6.10;99.90
25154;DHT22;47555;51.038;6.280;2023-02-11T08:57:47;6.20;99.90
25154;DHT22;47555;51.038;6.280;2023-02-11T09:00:14;6.20;99.90
25154;DHT22;47555;51.038;6.280;2023-02-11T09:02:40;6.10;99.90
25154;DHT22;47555;51.038;6.280;2023-02-11T09:05:06;6.10;99.90
25154;DHT22;47555;51.038;6.280;2023-02-11T09:07:32;6.20;99.90
25154;DHT22;47555;51.038;6.280;2023-02-11T09:09:57;6.10;99.90
25154;DHT22;47555;51.038;6.280;2023-02-11T09:12:23;6.20;99.90
25154;DHT22;47555;51.038;6.280;2023-02-11T09:14:48;6.20;99.90
25154;DHT22;47555;51.038;6.280;2023-02-11T09:17:14;6.20;99.90
25154;DHT22;47555;51.038;6.280;2023-02-11T09:19:39;6.20;99.90
25154;DHT22;47555;51.038;6.280;2023-02-11T09:22:05;6.20;99.90
25154;DHT22;47555;51.038;6.280;2023-02-11T09:24:31;6.20;99.90
25154;DHT22;47555;51.038;6.280;2023-02-11T09:26:56;6.30;99.90
25154;DHT22;47555;51.038;6.280;2023-02-11T09:29:22;6.30;99.90
25154;DHT22;47555;51.038;6.280;2023-02-11T09:31:47;6.30;99.90
25154;DHT22;47555;51.038;6.280;2023-02-11T09:34:14;6.30;99.90
25154;DHT22;47555;51.038;6.280;2023-02-11T09:36:40;6.30;99.90
25154;DHT22;47555;51.038;6.280;2023-02-11T09:39:12;6.30;99.90
25154;DHT22;47555;51.038;6.280;2023-02-11T09:41:40;6.30;99.90
25154;DHT22;47555;51.038;6.280;2023-02-11T09:44:09;6.20;99.90
25154;DHT22;47555;51.038;6.280;2023-02-11T09:46:41;6.30;99.90
25154;DHT22;47555;51.038;6.280;2023-02-11T09:49:18;6.30;99.90
25154;DHT22;47555;51.038;6.280;2023-02-11T09:51:48;6.30;99.90
25154;DHT22;47555;51.038;6.280;2023-02-11T09:54:35;6.30;99.90
25154;DHT22;47555;51.038;6.280;2023-02-11T09:57:02;6.30;99.90
25154;DHT22;47555;51.038;6.280;2023-02-11T09:59:27;6.30;99.90
25154;DHT22;47555;51.038;6.280;2023-02-11T10:02:01;6.30;99.90
25154;DHT22;47555;51.038;6.280;2023-02-11T10:05:14;6.30;99.90
25154;DHT22;47555;51.038;6.280;2023-02-11T10:13:34;6.40;99.90
25154;DHT22;47555;51.038;6.280;2023-02-11T10:18:48;6.40;99.90
25154;DHT22;47555;51.038;6.280;2023-02-11T10:23:47;6.40;99.90
25154;DHT22;47555;51.038;6.280;2023-02-11T10:26:17;6.50;99.90
25154;DHT22;47555;51.038;6.280;2023-02-11T10:28:48;6.40;99.90
25154;DHT22;47555;51.038;6.280;2023-02-11T10:31:16;6.50;99.90
25154;DHT22;47555;51.038;6.280;2023-02-11T10:36:18;6.50;99.90
25154;DHT22;47555;51.038;6.280;2023-02-11T10:38:45;6.60;99.90
25154;DHT22;47555;51.038;6.280;2023-02-11T10:41:18;6.60;99.90
25154;DHT22;47555;51.038;6.280;2023-02-11T10:43:45;6.60;99.90
25154;DHT22;47555;51.038;6.280;2023-02-11T10:46:17;6.60;99.90
25154;DHT22;47555;51.038;6.280;2023-02-11T10:48:51;6.60;99.90
25154;DHT22;47555;51.038;6.280;2023-02-11T10:51:23;6.60;99.90
25154;DHT22;47555;51.038;6.280;2023-02-11T10:54:10;6.70;99.90
25154;DHT22;47555;51.038;6.280;2023-02-11T10:56:47;6.70;99.90
25154;DHT22;47555;51.038;6.280;2023-02-11T10:59:32;6.70;99.90
25154;DHT22;47555;51.038;6.280;2023-02-11T11:02:20;6.70;99.90
25154;DHT22;47555;51.038;6.280;2023-02-11T11:04:48;6.70;99.90
25154;DHT22;47555;51.038;6.280;2023-02-11T11:07:20;6.80;99.90
25154;DHT22;47555;51.038;6.280;2023-02-11T11:09:55;6.80;99.90
25154;DHT22;47555;51.038;6.280;2023-02-11T11:15:10;6.90;99.90
25154;DHT22;47555;51.038;6.280;2023-02-11T11:17:37;6.90;99.90
25154;DHT22;47555;51.038;6.280;2023-02-11T11:20:23;6.90;99.90
25154;DHT22;47555;51.038;6.280;2023-02-11T11:22:51;6.90;99.90
25154;DHT22;47555;51.038;6.280;2023-02-11T11:25:28;6.90;99.90
25154;DHT22;47555;51.038;6.280;2023-02-11T11:27:57;6.90;99.90
25154;DHT22;47555;51.038;6.280;2023-02-11T11:30:30;7.00;99.90
25154;DHT22;47555;51.038;6.280;2023-02-11T11:32:57;7.00;99.90
25154;DHT22;47555;51.038;6.280;2023-02-11T11:35:29;7.00;99.90
25154;DHT22;47555;51.038;6.280;2023-02-11T11:38:01;7.00;99.90
25154;DHT22;47555;51.038;6.280;2023-02-11T11:40:33;7.00;99.90
25154;DHT22;47555;51.038;6.280;2023-02-11T11:43:16;7.00;99.90
25154;DHT22;47555;51.038;6.280;2023-02-11T11:45:57;7.00;99.90
25154;DHT22;47555;51.038;6.280;2023-02-11T11:48:36;7.00;99.90
25154;DHT22;47555;51.038;6.280;2023-02-11T11:51:09;7.00;99.90
25154;DHT22;47555;51.038;6.280;2023-02-11T11:53:52;7.10;99.90
25154;DHT22;47555;51.038;6.280;2023-02-11T11:56:26;7.10;99.90
25154;DHT22;47555;51.038;6.280;2023-02-11T11:58:52;7.10;99.90
25154;DHT22;47555;51.038;6.280;2023-02-11T12:01:53;7.10;99.90
25154;DHT22;47555;51.038;6.280;2023-02-11T12:04:34;7.10;99.90
25154;DHT22;47555;51.038;6.280;2023-02-11T12:07:32;7.10;99.90
25154;DHT22;47555;51.038;6.280;2023-02-11T12:10:32;7.20;99.90
25154;DHT22;47555;51.038;6.280;2023-02-11T12:13:20;7.20;99.90
25154;DHT22;47555;51.038;6.280;2023-02-11T12:24:35;7.30;99.90
25154;DHT22;47555;51.038;6.280;2023-02-11T12:32:56;7.30;99.90
25154;DHT22;47555;51.038;6.280;2023-02-11T12:35:51;7.30;99.90
25154;DHT22;47555;51.038;6.280;2023-02-11T12:38:35;7.30;99.90
25154;DHT22;47555;51.038;6.280;2023-02-11T12:47:10;7.30;99.90
25154;DHT22;47555;51.038;6.280;2023-02-11T12:49:48;7.30;99.90
25154;DHT22;47555;51.038;6.280;2023-02-11T12:52:26;7.30;99.90
25154;DHT22;47555;51.038;6.280;2023-02-11T12:54:59;7.30;99.90
25154;DHT22;47555;51.038;6.280;2023-02-11T12:57:31;7.30;99.90
25154;DHT22;47555;51.038;6.280;2023-02-11T13:00:22;7.30;99.90
25154;DHT22;47555;51.038;6.280;2023-02-11T13:02:55;7.30;99.90
25154;DHT22;47555;51.038;6.280;2023-02-11T13:05:28;7.30;99.90
25154;DHT22;47555;51.038;6.280;2023-02-11T13:07:58;7.40;99.90
25154;DHT22;47555;51.038;6.280;2023-02-11T13:10:34;7.40;99.90
25154;DHT22;47555;51.038;6.280;2023-02-11T13:13:02;7.40;99.90
25154;DHT22;47555;51.038;6.280;2023-02-11T13:16:05;7.30;99.90
25154;DHT22;47555;51.038;6.280;2023-02-11T13:18:43;7.40;99.90
25154;DHT22;47555;51.038;6.280;2023-02-11T13:27:03;7.40;99.90
25154;DHT22;47555;51.038;6.280;2023-02-11T13:38:26;7.40;99.90
25154;DHT22;47555;51.038;6.280;2023-02-11T13:41:03;7.40;99.90
25154;DHT22;47555;51.038;6.280;2023-02-11T13:43:31;7.40;99.90
25154;DHT22;47555;51.038;6.280;2023-02-11T13:45:59;7.50;99.90
25154;DHT22;47555;51.038;6.280;2023-02-11T13:48:28;7.50;99.90
25154;DHT22;47555;51.038;6.280;2023-02-11T13:51:01;7.50;99.90
25154;DHT22;47555;51.038;6.280;2023-02-11T13:53:28;7.50;99.90
25154;DHT22;47555;51.038;6.280;2023-02-11T13:56:06;7.50;99.90
25154;DHT22;47555;51.038;6.280;2023-02-11T13:58:35;7.50;99.90
25154;DHT22;47555;51.038;6.280;2023-02-11T14:01:04;7.50;99.90
25154;DHT22;47555;51.038;6.280;2023-02-11T14:03:35;7.50;99.90
25154;DHT22;47555;51.038;6.280;2023-02-11T14:06:23;7.50;99.90
25154;DHT22;47555;51.038;6.280;2023-02-11T14:14:25;7.40;99.90
25154;DHT22;47555;51.038;6.280;2023-02-11T14:19:38;7.50;99.90
25154;DHT22;47555;51.038;6.280;2023-02-11T14:22:17;7.50;99.90
25154;DHT22;47555;51.038;6.280;2023-02-11T14:24:48;7.60;99.90
25154;DHT22;47555;51.038;6.280;2023-02-11T14:30:06;7.60;99.90
25154;DHT22;47555;51.038;6.280;2023-02-11T14:32:51;7.50;99.90
25154;DHT22;47555;51.038;6.280;2023-02-11T14:35:39;7.60;99.90
25154;DHT22;47555;51.038;6.280;2023-02-11T14:38:30;7.60;99.90
25154;DHT22;47555;51.038;6.280;2023-02-11T14:41:16;7.60;99.90
25154;DHT22;47555;51.038;6.280;2023-02-11T14:43:45;7.70;99.90
25154;DHT22;47555;51.038;6.280;2023-02-11T14:46:14;7.70;99.90
25154;DHT22;47555;51.038;6.280;2023-02-11T14:48:45;7.70;99.90
25154;DHT22;47555;51.038;6.280;2023-02-11T14:53:45;7.70;99.90
25154;DHT22;47555;51.038;6.280;2023-02-11T14:56:17;7.70;99.90
25154;DHT22;47555;51.038;6.280;2023-02-11T14:58:47;7.70;99.90
25154;DHT22;47555;51.038;6.280;2023-02-11T15:01:40;7.80;99.90
25154;DHT22;47555;51.038;6.280;2023-02-11T15:04:30;7.80;99.90
25154;DHT22;47555;51.038;6.280;2023-02-11T15:06:58;7.90;99.90
25154;DHT22;47555;51.038;6.280;2023-02-11T15:09:43;7.80;99.90
25154;DHT22;47555;51.038;6.280;2023-02-11T15:12:26;7.80;99.90
25154;DHT22;47555;51.038;6.280;2023-02-11T15:14:58;7.80;99.90
25154;DHT22;47555;51.038;6.280;2023-02-11T15:17:27;7.80;99.90
25154;DHT22;47555;51.038;6.280;2023-02-11T15:19:57;7.90;99.90
25154;DHT22;47555;51.038;6.280;2023-02-11T15:22:27;7.90;99.90
25154;DHT22;47555;51.038;6.280;2023-02-11T15:25:00;7.90;99.90
25154;DHT22;47555;51.038;6.280;2023-02-11T15:27:26;7.90;99.90
25154;DHT22;47555;51.038;6.280;2023-02-11T15:29:52;7.90;99.90
25154;DHT22;47555;51.038;6.280;2023-02-11T15:32:21;7.90;99.90
25154;DHT22;47555;51.038;6.280;2023-02-11T15:34:48;7.90;99.90
25154;DHT22;47555;51.038;6.280;2023-02-11T15:37:28;7.90;99.90
25154;DHT22;47555;51.038;6.280;2023-02-11T15:40:13;7.90;99.90
25154;DHT22;47555;51.038;6.280;2023-02-11T15:42:39;7.90;99.90
25154;DHT22;47555;51.038;6.280;2023-02-11T15:47:47;7.90;99.90
25154;DHT22;47555;51.038;6.280;2023-02-11T15:50:28;7.90;99.90
25154;DHT22;47555;51.038;6.280;2023-02-11T15:52:56;7.90;99.90
25154;DHT22;47555;51.038;6.280;2023-02-11T15:55:25;7.90;99.90
25154;DHT22;47555;51.038;6.280;2023-02-11T15:57:59;7.90;99.90
25154;DHT22;47555;51.038;6.280;2023-02-11T16:00:37;7.80;99.90
25154;DHT22;47555;51.038;6.280;2023-02-11T16:03:19;7.80;99.90
25154;DHT22;47555;51.038;6.280;2023-02-11T16:05:45;7.80;99.90
25154;DHT22;47555;51.038;6.280;2023-02-11T16:08:24;7.80;99.90
25154;DHT22;47555;51.038;6.280;2023-02-11T16:10:56;7.80;99.90
25154;DHT22;47555;51.038;6.280;2023-02-11T16:13:23;7.80;99.90
25154;DHT22;47555;51.038;6.280;2023-02-11T16:15:56;7.80;99.90
25154;DHT22;47555;51.038;6.280;2023-02-11T16:18:38;7.80;99.90
25154;DHT22;47555;51.038;6.280;2023-02-11T16:21:05;7.80;99.90
25154;DHT22;47555;51.038;6.280;2023-02-11T16:23:34;7.80;99.90
25154;DHT22;47555;51.038;6.280;2023-02-11T16:27:06;7.80;99.90
25154;DHT22;47555;51.038;6.280;2023-02-11T16:29:05;7.70;99.90
25154;DHT22;47555;51.038;6.280;2023-02-11T16:31:36;7.80;99.90
25154;DHT22;47555;51.038;6.280;2023-02-11T16:34:04;7.80;99.90
25154;DHT22;47555;51.038;6.280;2023-02-11T16:36:30;7.70;99.90
25154;DHT22;47555;51.038;6.280;2023-02-11T16:38:55;7.70;99.90
25154;DHT22;47555;51.038;6.280;2023-02-11T16:41:21;7.70;99.90
25154;DHT22;47555;51.038;6.280;2023-02-11T16:43:46;7.70;99.90
25154;DHT22;47555;51.038;6.280;2023-02-11T16:46:15;7.70;99.90
25154;DHT22;47555;51.038;6.280;2023-02-11T16:48:40;7.70;99.90
25154;DHT22;47555;51.038;6.280;2023-02-11T16:51:06;7.70;99.90
25154;DHT22;47555;51.038;6.280;2023-02-11T16:53:33;7.70;99.90
25154;DHT22;47555;51.038;6.280;2023-02-11T16:55:59;7.70;99.90
25154;DHT22;47555;51.038;6.280;2023-02-11T16:58:24;7.70;99.90
25154;DHT22;47555;51.038;6.280;2023-02-11T17:00:50;7.70;99.90
25154;DHT22;47555;51.038;6.280;2023-02-11T17:03:20;7.70;99.90
25154;DHT22;47555;51.038;6.280;2023-02-11T17:05:47;7.70;99.90
25154;DHT22;47555;51.038;6.280;2023-02-11T17:08:14;7.70;99.90
25154;DHT22;47555;51.038;6.280;2023-02-11T17:10:39;7.70;99.90
25154;DHT22;47555;51.038;6.280;2023-02-11T17:13:05;7.70;99.90
25154;DHT22;47555;51.038;6.280;2023-02-11T17:15:31;7.70;99.90
25154;DHT22;47555;51.038;6.280;2023-02-11T17:17:57;7.70;99.90
25154;DHT22;47555;51.038;6.280;2023-02-11T17:20:23;7.70;99.90
25154;DHT22;47555;51.038;6.280;2023-02-11T17:22:49;7.70;99.90
25154;DHT22;47555;51.038;6.280;2023-02-11T17:25:15;7.60;99.90
25154;DHT22;47555;51.038;6.280;2023-02-11T17:27:40;7.60;99.90
25154;DHT22;47555;51.038;6.280;2023-02-11T17:30:07;7.60;99.90
25154;DHT22;47555;51.038;6.280;2023-02-11T17:32:33;7.60;99.90
25154;DHT22;47555;51.038;6.280;2023-02-11T17:34:58;7.60;99.90
25154;DHT22;47555;51.038;6.280;2023-02-11T17:37:24;7.70;99.90